sensor_id;sensor_type;location;lat;lon;timestamp;P1;durP1;ratioP1;P2;durP2;ratioP2
40635;SDS011;26642;55.766;37.828;2023-05-07T00:00:03;3.45;;;3.03;;
40635;SDS011;26642;55.766;37.828;2023-05-07T00:02:34;8.68;;;3.00;;
40635;SDS011;26642;55.766;37.828;2023-05-07T00:05:00;5.80;;;3.20;;
40635;SDS011;26642;55.766;37.828;2023-05-07T00:07:27;7.07;;;3.30;;
40635;SDS011;26642;55.766;37.828;2023-05-07T00:09:53;4.32;;;3.20;;
40635;SDS011;26642;55.766;37.828;2023-05-07T00:12:19;5.57;;;3.25;;
40635;SDS011;26642;55.766;37.828;2023-05-07T00:14:45;4.30;;;3.25;;
40635;SDS011;26642;55.766;37.828;2023-05-07T00:17:11;3.63;;;3.00;;
40635;SDS011;26642;55.766;37.828;2023-05-07T00:19:37;5.50;;;3.08;;
40635;SDS011;26642;55.766;37.828;2023-05-07T00:22:03;4.22;;;3.13;;
40635;SDS011;26642;55.766;37.828;2023-05-07T00:24:29;3.70;;;2.75;;
40635;SDS011;26642;55.766;37.828;2023-05-07T00:26:55;5.82;;;3.20;;
40635;SDS011;26642;55.766;37.828;2023-05-07T00:29:23;4.75;;;3.30;;
40635;SDS011;26642;55.766;37.828;2023-05-07T00:31:49;3.90;;;3.30;;
40635;SDS011;26642;55.766;37.828;2023-05-07T00:34:15;4.93;;;3.13;;
40635;SDS011;26642;55.766;37.828;2023-05-07T00:36:41;5.22;;;3.33;;
40635;SDS011;26642;55.766;37.828;2023-05-07T00:39:07;6.00;;;3.28;;
40635;SDS011;26642;55.766;37.828;2023-05-07T00:41:33;3.13;;;2.83;;
40635;SDS011;26642;55.766;37.828;2023-05-07T00:43:59;5.85;;;3.80;;
40635;SDS011;26642;55.766;37.828;2023-05-07T00:46:27;4.18;;;3.72;;
40635;SDS011;26642;55.766;37.828;2023-05-07T00:48:55;6.07;;;3.75;;
40635;SDS011;26642;55.766;37.828;2023-05-07T00:51:23;6.97;;;3.63;;
40635;SDS011;26642;55.766;37.828;2023-05-07T00:53:52;6.63;;;3.30;;
40635;SDS011;26642;55.766;37.828;2023-05-07T00:56:20;7.43;;;3.83;;
40635;SDS011;26642;55.766;37.828;2023-05-07T00:58:46;5.35;;;3.28;;
40635;SDS011;26642;55.766;37.828;2023-05-07T01:01:13;5.50;;;3.40;;
40635;SDS011;26642;55.766;37.828;2023-05-07T01:03:41;6.65;;;3.30;;
40635;SDS011;26642;55.766;37.828;2023-05-07T01:06:08;5.60;;;3.40;;
40635;SDS011;26642;55.766;37.828;2023-05-07T01:08:37;4.10;;;3.35;;
40635;SDS011;26642;55.766;37.828;2023-05-07T01:11:05;5.47;;;3.80;;
40635;SDS011;26642;55.766;37.828;2023-05-07T01:13:32;4.80;;;2.92;;
40635;SDS011;26642;55.766;37.828;2023-05-07T01:16:01;6.03;;;3.17;;
40635;SDS011;26642;55.766;37.828;2023-05-07T01:18:28;3.55;;;2.90;;
40635;SDS011;26642;55.766;37.828;2023-05-07T01:20:58;6.40;;;3.20;;
40635;SDS011;26642;55.766;37.828;2023-05-07T01:23:27;6.63;;;3.08;;
40635;SDS011;26642;55.766;37.828;2023-05-07T01:25:54;4.50;;;3.22;;
40635;SDS011;26642;55.766;37.828;2023-05-07T01:28:23;6.00;;;2.90;;
40635;SDS011;26642;55.766;37.828;2023-05-07T01:30:51;4.68;;;2.97;;
40635;SDS011;26642;55.766;37.828;2023-05-07T01:33:21;5.80;;;3.08;;
40635;SDS011;26642;55.766;37.828;2023-05-07T01:35:48;4.32;;;3.38;;
40635;SDS011;26642;55.766;37.828;2023-05-07T01:38:18;5.50;;;3.13;;
40635;SDS011;26642;55.766;37.828;2023-05-07T01:40:46;4.00;;;2.90;;
40635;SDS011;26642;55.766;37.828;2023-05-07T01:43:12;6.13;;;3.03;;
40635;SDS011;26642;55.766;37.828;2023-05-07T01:45:39;4.05;;;2.95;;
40635;SDS011;26642;55.766;37.828;2023-05-07T01:48:06;3.45;;;2.88;;
40635;SDS011;26642;55.766;37.828;2023-05-07T01:50:33;5.10;;;2.92;;
40635;SDS011;26642;55.766;37.828;2023-05-07T01:53:01;4.57;;;2.95;;
40635;SDS011;26642;55.766;37.828;2023-05-07T01:55:28;4.25;;;3.05;;
40635;SDS011;26642;55.766;37.828;2023-05-07T01:57:54;4.70;;;3.15;;
40635;SDS011;26642;55.766;37.828;2023-05-07T02:00:20;5.32;;;3.15;;
40635;SDS011;26642;55.766;37.828;2023-05-07T02:02:46;5.55;;;3.33;;
40635;SDS011;26642;55.766;37.828;2023-05-07T02:05:31;4.20;;;3.00;;
40635;SDS011;26642;55.766;37.828;2023-05-07T02:08:09;3.50;;;2.92;;
40635;SDS011;26642;55.766;37.828;2023-05-07T02:10:36;4.85;;;3.08;;
40635;SDS011;26642;55.766;37.828;2023-05-07T02:13:04;2.97;;;2.63;;
40635;SDS011;26642;55.766;37.828;2023-05-07T02:15:30;3.33;;;2.88;;
40635;SDS011;26642;55.766;37.828;2023-05-07T02:20:29;5.28;;;2.85;;
40635;SDS011;26642;55.766;37.828;2023-05-07T02:22:55;3.83;;;2.70;;
40635;SDS011;26642;55.766;37.828;2023-05-07T02:25:22;4.97;;;2.67;;
40635;SDS011;26642;55.766;37.828;2023-05-07T02:27:48;3.05;;;2.65;;
40635;SDS011;26642;55.766;37.828;2023-05-07T02:30:15;5.00;;;2.72;;
40635;SDS011;26642;55.766;37.828;2023-05-07T02:32:41;3.97;;;2.90;;
40635;SDS011;26642;55.766;37.828;2023-05-07T02:35:07;4.63;;;2.60;;
40635;SDS011;26642;55.766;37.828;2023-05-07T02:37:33;4.72;;;2.70;;
40635;SDS011;26642;55.766;37.828;2023-05-07T02:40:00;3.25;;;2.40;;
40635;SDS011;26642;55.766;37.828;2023-05-07T02:42:26;5.18;;;2.92;;
40635;SDS011;26642;55.766;37.828;2023-05-07T02:44:52;3.70;;;2.65;;
40635;SDS011;26642;55.766;37.828;2023-05-07T02:47:18;3.95;;;2.60;;
40635;SDS011;26642;55.766;37.828;2023-05-07T02:49:45;3.67;;;2.83;;
40635;SDS011;26642;55.766;37.828;2023-05-07T02:52:12;3.92;;;2.67;;
40635;SDS011;26642;55.766;37.828;2023-05-07T02:54:38;3.85;;;2.80;;
40635;SDS011;26642;55.766;37.828;2023-05-07T02:57:04;4.88;;;2.83;;
40635;SDS011;26642;55.766;37.828;2023-05-07T02:59:30;3.38;;;2.60;;
40635;SDS011;26642;55.766;37.828;2023-05-07T03:01:56;3.97;;;2.78;;
40635;SDS011;26642;55.766;37.828;2023-05-07T03:04:22;4.05;;;2.58;;
40635;SDS011;26642;55.766;37.828;2023-05-07T03:06:48;4.28;;;2.75;;
40635;SDS011;26642;55.766;37.828;2023-05-07T03:09:14;2.80;;;2.33;;
40635;SDS011;26642;55.766;37.828;2023-05-07T03:11:40;4.60;;;2.40;;
40635;SDS011;26642;55.766;37.828;2023-05-07T03:14:06;3.10;;;2.72;;
40635;SDS011;26642;55.766;37.828;2023-05-07T03:16:32;5.30;;;2.33;;
40635;SDS011;26642;55.766;37.828;2023-05-07T03:18:58;2.60;;;2.40;;
40635;SDS011;26642;55.766;37.828;2023-05-07T03:21:24;3.00;;;2.53;;
40635;SDS011;26642;55.766;37.828;2023-05-07T03:23:51;3.72;;;2.53;;
40635;SDS011;26642;55.766;37.828;2023-05-07T03:26:17;2.42;;;2.20;;
40635;SDS011;26642;55.766;37.828;2023-05-07T03:28:44;4.80;;;2.45;;
40635;SDS011;26642;55.766;37.828;2023-05-07T03:31:12;4.63;;;2.95;;
40635;SDS011;26642;55.766;37.828;2023-05-07T03:33:47;2.70;;;2.15;;
40635;SDS011;26642;55.766;37.828;2023-05-07T03:36:18;3.88;;;2.03;;
40635;SDS011;26642;55.766;37.828;2023-05-07T03:38:44;2.70;;;2.13;;
40635;SDS011;26642;55.766;37.828;2023-05-07T03:41:11;2.30;;;2.00;;
40635;SDS011;26642;55.766;37.828;2023-05-07T03:43:37;4.18;;;2.13;;
40635;SDS011;26642;55.766;37.828;2023-05-07T03:46:08;2.50;;;2.28;;
40635;SDS011;26642;55.766;37.828;2023-05-07T03:48:34;2.38;;;2.15;;
40635;SDS011;26642;55.766;37.828;2023-05-07T03:51:00;5.03;;;2.40;;
40635;SDS011;26642;55.766;37.828;2023-05-07T03:53:31;2.92;;;2.00;;
40635;SDS011;26642;55.766;37.828;2023-05-07T03:55:56;3.25;;;2.10;;
40635;SDS011;26642;55.766;37.828;2023-05-07T03:58:23;2.75;;;2.50;;
40635;SDS011;26642;55.766;37.828;2023-05-07T04:00:50;3.45;;;2.10;;
40635;SDS011;26642;55.766;37.828;2023-05-07T04:03:24;2.38;;;2.03;;
40635;SDS011;26642;55.766;37.828;2023-05-07T04:05:50;3.00;;;2.17;;
40635;SDS011;26642;55.766;37.828;2023-05-07T04:08:16;2.88;;;2.05;;
40635;SDS011;26642;55.766;37.828;2023-05-07T04:10:46;2.30;;;1.77;;
40635;SDS011;26642;55.766;37.828;2023-05-07T04:13:12;2.15;;;1.95;;
40635;SDS011;26642;55.766;37.828;2023-05-07T04:15:39;2.25;;;1.90;;
40635;SDS011;26642;55.766;37.828;2023-05-07T04:18:08;1.70;;;1.60;;
40635;SDS011;26642;55.766;37.828;2023-05-07T04:20:36;2.05;;;1.67;;
40635;SDS011;26642;55.766;37.828;2023-05-07T04:23:04;2.03;;;1.25;;
40635;SDS011;26642;55.766;37.828;2023-05-07T04:25:31;2.42;;;1.60;;
40635;SDS011;26642;55.766;37.828;2023-05-07T04:28:05;1.75;;;1.60;;
40635;SDS011;26642;55.766;37.828;2023-05-07T04:30:31;1.90;;;1.60;;
40635;SDS011;26642;55.766;37.828;2023-05-07T04:32:57;1.75;;;1.38;;
40635;SDS011;26642;55.766;37.828;2023-05-07T04:35:26;2.17;;;1.45;;
40635;SDS011;26642;55.766;37.828;2023-05-07T04:37:52;1.30;;;1.20;;
40635;SDS011;26642;55.766;37.828;2023-05-07T04:40:18;1.40;;;1.30;;
40635;SDS011;26642;55.766;37.828;2023-05-07T04:42:44;1.58;;;1.30;;
40635;SDS011;26642;55.766;37.828;2023-05-07T04:45:11;3.28;;;1.35;;
40635;SDS011;26642;55.766;37.828;2023-05-07T04:47:40;2.67;;;1.40;;
40635;SDS011;26642;55.766;37.828;2023-05-07T04:50:06;3.20;;;1.30;;
40635;SDS011;26642;55.766;37.828;2023-05-07T04:52:34;2.40;;;1.23;;
40635;SDS011;26642;55.766;37.828;2023-05-07T04:55:00;2.78;;;1.42;;
40635;SDS011;26642;55.766;37.828;2023-05-07T04:57:32;1.38;;;1.27;;
40635;SDS011;26642;55.766;37.828;2023-05-07T04:59:58;2.97;;;1.10;;
40635;SDS011;26642;55.766;37.828;2023-05-07T05:02:24;1.52;;;1.10;;
40635;SDS011;26642;55.766;37.828;2023-05-07T05:04:50;3.53;;;1.10;;
40635;SDS011;26642;55.766;37.828;2023-05-07T05:07:17;2.22;;;1.00;;
40635;SDS011;26642;55.766;37.828;2023-05-07T05:09:43;2.78;;;1.25;;
40635;SDS011;26642;55.766;37.828;2023-05-07T05:12:10;1.92;;;0.90;;
40635;SDS011;26642;55.766;37.828;2023-05-07T05:14:37;2.00;;;1.00;;
40635;SDS011;26642;55.766;37.828;2023-05-07T05:17:03;3.75;;;1.10;;
40635;SDS011;26642;55.766;37.828;2023-05-07T05:19:29;1.05;;;0.93;;
40635;SDS011;26642;55.766;37.828;2023-05-07T05:21:55;1.15;;;1.08;;
40635;SDS011;26642;55.766;37.828;2023-05-07T05:24:21;1.13;;;0.98;;
40635;SDS011;26642;55.766;37.828;2023-05-07T05:26:47;1.58;;;0.98;;
40635;SDS011;26642;55.766;37.828;2023-05-07T05:29:14;2.67;;;1.33;;
40635;SDS011;26642;55.766;37.828;2023-05-07T05:31:41;1.35;;;1.20;;
40635;SDS011;26642;55.766;37.828;2023-05-07T05:34:07;3.33;;;1.02;;
40635;SDS011;26642;55.766;37.828;2023-05-07T05:36:34;1.50;;;0.90;;
40635;SDS011;26642;55.766;37.828;2023-05-07T05:39:00;1.20;;;1.10;;
40635;SDS011;26642;55.766;37.828;2023-05-07T05:41:27;1.00;;;0.90;;
40635;SDS011;26642;55.766;37.828;2023-05-07T05:43:53;1.23;;;0.90;;
40635;SDS011;26642;55.766;37.828;2023-05-07T05:46:19;0.98;;;0.88;;
40635;SDS011;26642;55.766;37.828;2023-05-07T05:48:48;2.80;;;1.10;;
40635;SDS011;26642;55.766;37.828;2023-05-07T05:51:14;1.20;;;1.10;;
40635;SDS011;26642;55.766;37.828;2023-05-07T05:53:40;3.55;;;0.90;;
40635;SDS011;26642;55.766;37.828;2023-05-07T05:56:07;1.05;;;0.88;;
40635;SDS011;26642;55.766;37.828;2023-05-07T05:58:34;2.83;;;0.75;;
40635;SDS011;26642;55.766;37.828;2023-05-07T06:01:03;3.70;;;1.02;;
40635;SDS011;26642;55.766;37.828;2023-05-07T06:03:30;4.80;;;1.13;;
40635;SDS011;26642;55.766;37.828;2023-05-07T06:06:00;5.30;;;1.65;;
40635;SDS011;26642;55.766;37.828;2023-05-07T06:08:29;2.78;;;1.20;;
40635;SDS011;26642;55.766;37.828;2023-05-07T06:10:55;2.20;;;1.02;;
40635;SDS011;26642;55.766;37.828;2023-05-07T06:13:22;4.68;;;1.15;;
40635;SDS011;26642;55.766;37.828;2023-05-07T06:15:49;5.82;;;1.80;;
40635;SDS011;26642;55.766;37.828;2023-05-07T06:18:15;6.53;;;1.83;;
40635;SDS011;26642;55.766;37.828;2023-05-07T06:20:41;4.75;;;2.65;;
40635;SDS011;26642;55.766;37.828;2023-05-07T06:23:13;6.93;;;2.72;;
40635;SDS011;26642;55.766;37.828;2023-05-07T06:25:39;7.75;;;3.30;;
40635;SDS011;26642;55.766;37.828;2023-05-07T06:28:06;12.65;;;3.20;;
40635;SDS011;26642;55.766;37.828;2023-05-07T06:30:35;10.88;;;3.28;;
40635;SDS011;26642;55.766;37.828;2023-05-07T06:33:02;9.55;;;3.22;;
40635;SDS011;26642;55.766;37.828;2023-05-07T06:35:28;8.63;;;2.75;;
40635;SDS011;26642;55.766;37.828;2023-05-07T06:37:54;5.63;;;2.67;;
40635;SDS011;26642;55.766;37.828;2023-05-07T06:40:23;4.90;;;2.60;;
40635;SDS011;26642;55.766;37.828;2023-05-07T06:42:49;4.72;;;3.05;;
40635;SDS011;26642;55.766;37.828;2023-05-07T06:45:27;4.97;;;2.50;;
40635;SDS011;26642;55.766;37.828;2023-05-07T06:47:54;3.88;;;2.25;;
40635;SDS011;26642;55.766;37.828;2023-05-07T06:50:22;4.20;;;2.10;;
40635;SDS011;26642;55.766;37.828;2023-05-07T06:52:49;2.35;;;1.67;;
40635;SDS011;26642;55.766;37.828;2023-05-07T06:55:15;1.70;;;1.60;;
40635;SDS011;26642;55.766;37.828;2023-05-07T06:57:41;4.30;;;1.55;;
40635;SDS011;26642;55.766;37.828;2023-05-07T07:00:07;2.03;;;1.40;;
40635;SDS011;26642;55.766;37.828;2023-05-07T07:02:42;4.70;;;1.70;;
40635;SDS011;26642;55.766;37.828;2023-05-07T07:05:10;2.78;;;1.48;;
40635;SDS011;26642;55.766;37.828;2023-05-07T07:07:37;2.30;;;1.48;;
40635;SDS011;26642;55.766;37.828;2023-05-07T07:10:04;2.13;;;1.55;;
40635;SDS011;26642;55.766;37.828;2023-05-07T07:12:30;2.80;;;1.85;;
40635;SDS011;26642;55.766;37.828;2023-05-07T07:14:56;2.17;;;1.88;;
40635;SDS011;26642;55.766;37.828;2023-05-07T07:17:22;2.88;;;2.08;;
40635;SDS011;26642;55.766;37.828;2023-05-07T07:19:49;2.58;;;1.70;;
40635;SDS011;26642;55.766;37.828;2023-05-07T07:22:15;3.88;;;1.73;;
40635;SDS011;26642;55.766;37.828;2023-05-07T07:24:41;6.05;;;1.80;;
40635;SDS011;26642;55.766;37.828;2023-05-07T07:27:10;2.60;;;1.30;;
40635;SDS011;26642;55.766;37.828;2023-05-07T07:29:37;4.30;;;1.30;;
40635;SDS011;26642;55.766;37.828;2023-05-07T07:32:03;3.35;;;1.15;;
40635;SDS011;26642;55.766;37.828;2023-05-07T07:34:29;1.65;;;1.15;;
40635;SDS011;26642;55.766;37.828;2023-05-07T07:36:56;6.00;;;1.90;;
40635;SDS011;26642;55.766;37.828;2023-05-07T07:39:23;5.05;;;1.30;;
40635;SDS011;26642;55.766;37.828;2023-05-07T07:41:52;3.97;;;1.10;;
40635;SDS011;26642;55.766;37.828;2023-05-07T07:44:20;5.68;;;3.55;;
40635;SDS011;26642;55.766;37.828;2023-05-07T07:46:51;6.25;;;2.20;;
40635;SDS011;26642;55.766;37.828;2023-05-07T07:49:19;8.65;;;4.28;;
40635;SDS011;26642;55.766;37.828;2023-05-07T07:51:45;5.47;;;3.45;;
40635;SDS011;26642;55.766;37.828;2023-05-07T07:54:12;4.82;;;2.20;;
40635;SDS011;26642;55.766;37.828;2023-05-07T07:56:39;5.90;;;2.10;;
40635;SDS011;26642;55.766;37.828;2023-05-07T07:59:06;2.65;;;1.73;;
40635;SDS011;26642;55.766;37.828;2023-05-07T08:01:33;4.05;;;2.53;;
40635;SDS011;26642;55.766;37.828;2023-05-07T08:03:59;1.92;;;1.75;;
40635;SDS011;26642;55.766;37.828;2023-05-07T08:06:29;4.05;;;1.60;;
40635;SDS011;26642;55.766;37.828;2023-05-07T08:08:55;3.65;;;1.83;;
40635;SDS011;26642;55.766;37.828;2023-05-07T08:11:22;3.00;;;1.45;;
40635;SDS011;26642;55.766;37.828;2023-05-07T08:13:48;2.35;;;1.55;;
40635;SDS011;26642;55.766;37.828;2023-05-07T08:16:14;2.25;;;1.05;;
40635;SDS011;26642;55.766;37.828;2023-05-07T08:18:41;3.17;;;1.10;;
40635;SDS011;26642;55.766;37.828;2023-05-07T08:21:07;1.90;;;1.02;;
40635;SDS011;26642;55.766;37.828;2023-05-07T08:23:34;2.35;;;1.10;;
40635;SDS011;26642;55.766;37.828;2023-05-07T08:26:00;2.53;;;1.10;;
40635;SDS011;26642;55.766;37.828;2023-05-07T08:28:26;2.58;;;1.10;;
40635;SDS011;26642;55.766;37.828;2023-05-07T08:30:53;8.63;;;1.85;;
40635;SDS011;26642;55.766;37.828;2023-05-07T08:33:19;10.48;;;1.52;;
40635;SDS011;26642;55.766;37.828;2023-05-07T08:35:45;19.65;;;2.25;;
40635;SDS011;26642;55.766;37.828;2023-05-07T08:38:12;18.00;;;3.47;;
40635;SDS011;26642;55.766;37.828;2023-05-07T08:40:39;19.33;;;2.50;;
40635;SDS011;26642;55.766;37.828;2023-05-07T08:43:16;15.30;;;2.05;;
40635;SDS011;26642;55.766;37.828;2023-05-07T08:45:45;21.35;;;2.20;;
40635;SDS011;26642;55.766;37.828;2023-05-07T08:48:16;4.93;;;1.70;;
40635;SDS011;26642;55.766;37.828;2023-05-07T08:50:47;11.65;;;3.17;;
40635;SDS011;26642;55.766;37.828;2023-05-07T08:53:13;8.25;;;3.15;;
40635;SDS011;26642;55.766;37.828;2023-05-07T08:55:41;7.10;;;2.10;;
40635;SDS011;26642;55.766;37.828;2023-05-07T08:58:07;10.27;;;1.90;;
40635;SDS011;26642;55.766;37.828;2023-05-07T09:00:37;3.22;;;1.30;;
40635;SDS011;26642;55.766;37.828;2023-05-07T09:03:05;2.55;;;1.42;;
40635;SDS011;26642;55.766;37.828;2023-05-07T09:05:31;19.67;;;11.48;;
40635;SDS011;26642;55.766;37.828;2023-05-07T09:08:03;8.57;;;5.13;;
40635;SDS011;26642;55.766;37.828;2023-05-07T09:10:34;4.18;;;2.75;;
40635;SDS011;26642;55.766;37.828;2023-05-07T09:13:02;2.03;;;1.73;;
40635;SDS011;26642;55.766;37.828;2023-05-07T09:15:28;1.67;;;1.50;;
40635;SDS011;26642;55.766;37.828;2023-05-07T09:17:58;8.13;;;4.60;;
40635;SDS011;26642;55.766;37.828;2023-05-07T09:20:27;9.02;;;5.90;;
40635;SDS011;26642;55.766;37.828;2023-05-07T09:22:55;13.98;;;9.48;;
40635;SDS011;26642;55.766;37.828;2023-05-07T09:25:30;9.45;;;5.53;;
40635;SDS011;26642;55.766;37.828;2023-05-07T09:28:01;6.97;;;3.05;;
40635;SDS011;26642;55.766;37.828;2023-05-07T09:30:32;5.28;;;2.33;;
40635;SDS011;26642;55.766;37.828;2023-05-07T09:33:02;2.55;;;1.95;;
40635;SDS011;26642;55.766;37.828;2023-05-07T09:35:30;5.20;;;1.63;;
40635;SDS011;26642;55.766;37.828;2023-05-07T09:38:01;1.52;;;1.33;;
40635;SDS011;26642;55.766;37.828;2023-05-07T09:40:29;3.17;;;1.33;;
40635;SDS011;26642;55.766;37.828;2023-05-07T09:43:10;2.25;;;1.00;;
40635;SDS011;26642;55.766;37.828;2023-05-07T09:45:41;5.22;;;1.17;;
40635;SDS011;26642;55.766;37.828;2023-05-07T09:48:08;1.65;;;1.00;;
40635;SDS011;26642;55.766;37.828;2023-05-07T09:50:40;4.32;;;1.20;;
40635;SDS011;26642;55.766;37.828;2023-05-07T09:53:19;1.60;;;1.00;;
40635;SDS011;26642;55.766;37.828;2023-05-07T09:55:47;1.38;;;1.13;;
40635;SDS011;26642;55.766;37.828;2023-05-07T09:58:13;0.80;;;0.80;;
40635;SDS011;26642;55.766;37.828;2023-05-07T10:00:42;0.93;;;0.75;;
40635;SDS011;26642;55.766;37.828;2023-05-07T10:03:12;2.05;;;0.90;;
40635;SDS011;26642;55.766;37.828;2023-05-07T10:05:50;2.90;;;0.88;;
40635;SDS011;26642;55.766;37.828;2023-05-07T10:08:18;2.58;;;0.95;;
40635;SDS011;26642;55.766;37.828;2023-05-07T10:10:47;3.35;;;0.85;;
40635;SDS011;26642;55.766;37.828;2023-05-07T10:13:19;3.00;;;0.88;;
40635;SDS011;26642;55.766;37.828;2023-05-07T10:15:49;3.15;;;0.93;;
40635;SDS011;26642;55.766;37.828;2023-05-07T10:18:17;1.23;;;0.75;;
40635;SDS011;26642;55.766;37.828;2023-05-07T10:20:48;5.45;;;1.20;;
40635;SDS011;26642;55.766;37.828;2023-05-07T10:23:19;2.75;;;1.00;;
40635;SDS011;26642;55.766;37.828;2023-05-07T10:25:50;1.90;;;0.80;;
40635;SDS011;26642;55.766;37.828;2023-05-07T10:28:21;2.03;;;0.80;;
40635;SDS011;26642;55.766;37.828;2023-05-07T10:33:31;4.22;;;1.20;;
40635;SDS011;26642;55.766;37.828;2023-05-07T10:36:00;1.45;;;0.68;;
40635;SDS011;26642;55.766;37.828;2023-05-07T10:38:30;4.22;;;0.80;;
40635;SDS011;26642;55.766;37.828;2023-05-07T10:40:58;2.40;;;0.90;;
40635;SDS011;26642;55.766;37.828;2023-05-07T10:43:25;2.38;;;1.10;;
40635;SDS011;26642;55.766;37.828;2023-05-07T10:46:36;1.17;;;0.90;;
40635;SDS011;26642;55.766;37.828;2023-05-07T10:49:19;2.03;;;0.90;;
40635;SDS011;26642;55.766;37.828;2023-05-07T10:54:38;4.10;;;1.30;;
40635;SDS011;26642;55.766;37.828;2023-05-07T10:59:58;4.38;;;1.08;;
40635;SDS011;26642;55.766;37.828;2023-05-07T11:05:38;5.55;;;1.27;;
40635;SDS011;26642;55.766;37.828;2023-05-07T11:08:14;6.25;;;1.20;;
40635;SDS011;26642;55.766;37.828;2023-05-07T11:10:51;6.78;;;1.20;;
40635;SDS011;26642;55.766;37.828;2023-05-07T11:13:48;9.15;;;1.15;;
40635;SDS011;26642;55.766;37.828;2023-05-07T11:16:35;10.55;;;1.50;;
40635;SDS011;26642;55.766;37.828;2023-05-07T11:22:56;9.23;;;1.60;;
40635;SDS011;26642;55.766;37.828;2023-05-07T11:25:28;5.03;;;1.33;;
40635;SDS011;26642;55.766;37.828;2023-05-07T11:28:12;5.75;;;1.20;;
40635;SDS011;26642;55.766;37.828;2023-05-07T11:30:44;20.27;;;3.42;;
40635;SDS011;26642;55.766;37.828;2023-05-07T11:33:16;14.15;;;2.40;;
40635;SDS011;26642;55.766;37.828;2023-05-07T11:35:45;12.07;;;2.38;;
40635;SDS011;26642;55.766;37.828;2023-05-07T11:38:14;34.08;;;3.10;;
40635;SDS011;26642;55.766;37.828;2023-05-07T11:40:55;23.75;;;2.67;;
40635;SDS011;26642;55.766;37.828;2023-05-07T11:43:22;21.30;;;2.55;;
40635;SDS011;26642;55.766;37.828;2023-05-07T11:45:48;12.70;;;1.95;;
40635;SDS011;26642;55.766;37.828;2023-05-07T11:48:15;11.98;;;2.33;;
40635;SDS011;26642;55.766;37.828;2023-05-07T11:50:51;7.25;;;1.20;;
40635;SDS011;26642;55.766;37.828;2023-05-07T11:53:27;9.90;;;1.52;;
40635;SDS011;26642;55.766;37.828;2023-05-07T11:56:09;12.50;;;2.13;;
40635;SDS011;26642;55.766;37.828;2023-05-07T11:58:39;13.98;;;2.00;;
40635;SDS011;26642;55.766;37.828;2023-05-07T12:01:09;6.25;;;1.92;;
40635;SDS011;26642;55.766;37.828;2023-05-07T12:03:36;11.80;;;2.65;;
40635;SDS011;26642;55.766;37.828;2023-05-07T12:06:05;11.40;;;1.80;;
40635;SDS011;26642;55.766;37.828;2023-05-07T12:08:32;9.30;;;2.03;;
40635;SDS011;26642;55.766;37.828;2023-05-07T12:10:58;6.93;;;1.67;;
40635;SDS011;26642;55.766;37.828;2023-05-07T12:13:24;5.68;;;1.50;;
40635;SDS011;26642;55.766;37.828;2023-05-07T12:15:51;8.25;;;2.30;;
40635;SDS011;26642;55.766;37.828;2023-05-07T12:18:18;9.50;;;1.80;;
40635;SDS011;26642;55.766;37.828;2023-05-07T12:20:44;36.33;;;4.25;;
40635;SDS011;26642;55.766;37.828;2023-05-07T12:23:11;22.02;;;3.38;;
40635;SDS011;26642;55.766;37.828;2023-05-07T12:25:38;16.00;;;2.75;;
40635;SDS011;26642;55.766;37.828;2023-05-07T12:28:05;13.15;;;2.25;;
40635;SDS011;26642;55.766;37.828;2023-05-07T12:30:39;10.85;;;1.83;;
40635;SDS011;26642;55.766;37.828;2023-05-07T12:33:05;6.65;;;2.00;;
40635;SDS011;26642;55.766;37.828;2023-05-07T12:35:32;7.05;;;1.50;;
40635;SDS011;26642;55.766;37.828;2023-05-07T12:38:07;7.65;;;1.50;;
40635;SDS011;26642;55.766;37.828;2023-05-07T12:40:37;4.90;;;1.33;;
40635;SDS011;26642;55.766;37.828;2023-05-07T12:43:12;34.35;;;5.20;;
40635;SDS011;26642;55.766;37.828;2023-05-07T12:45:42;35.60;;;4.47;;
40635;SDS011;26642;55.766;37.828;2023-05-07T12:48:09;26.42;;;4.15;;
40635;SDS011;26642;55.766;37.828;2023-05-07T12:50:36;31.27;;;5.60;;
40635;SDS011;26642;55.766;37.828;2023-05-07T12:53:05;21.30;;;3.78;;
40635;SDS011;26642;55.766;37.828;2023-05-07T12:55:54;24.05;;;3.92;;
40635;SDS011;26642;55.766;37.828;2023-05-07T12:58:31;17.35;;;3.10;;
40635;SDS011;26642;55.766;37.828;2023-05-07T13:01:00;17.02;;;2.97;;
40635;SDS011;26642;55.766;37.828;2023-05-07T13:03:36;10.45;;;2.35;;
40635;SDS011;26642;55.766;37.828;2023-05-07T13:06:07;49.25;;;4.80;;
40635;SDS011;26642;55.766;37.828;2023-05-07T13:08:40;35.58;;;4.47;;
40635;SDS011;26642;55.766;37.828;2023-05-07T13:11:10;25.05;;;4.07;;
40635;SDS011;26642;55.766;37.828;2023-05-07T13:13:37;18.80;;;3.28;;
40635;SDS011;26642;55.766;37.828;2023-05-07T13:16:05;14.63;;;3.05;;
40635;SDS011;26642;55.766;37.828;2023-05-07T13:18:33;17.52;;;2.50;;
40635;SDS011;26642;55.766;37.828;2023-05-07T13:20:59;9.00;;;1.90;;
40635;SDS011;26642;55.766;37.828;2023-05-07T13:23:26;9.45;;;2.45;;
40635;SDS011;26642;55.766;37.828;2023-05-07T13:25:53;14.13;;;1.85;;
40635;SDS011;26642;55.766;37.828;2023-05-07T13:28:22;5.72;;;1.50;;
40635;SDS011;26642;55.766;37.828;2023-05-07T13:30:49;6.38;;;1.40;;
40635;SDS011;26642;55.766;37.828;2023-05-07T13:33:17;5.28;;;1.40;;
40635;SDS011;26642;55.766;37.828;2023-05-07T13:35:43;8.48;;;1.48;;
40635;SDS011;26642;55.766;37.828;2023-05-07T13:38:10;3.25;;;1.27;;
40635;SDS011;26642;55.766;37.828;2023-05-07T13:40:35;6.95;;;1.20;;
40635;SDS011;26642;55.766;37.828;2023-05-07T13:43:01;3.08;;;1.20;;
40635;SDS011;26642;55.766;37.828;2023-05-07T13:45:28;37.67;;;5.68;;
40635;SDS011;26642;55.766;37.828;2023-05-07T13:47:57;63.17;;;9.55;;
40635;SDS011;26642;55.766;37.828;2023-05-07T13:50:23;38.75;;;6.28;;
40635;SDS011;26642;55.766;37.828;2023-05-07T13:52:49;89.25;;;13.40;;
40635;SDS011;26642;55.766;37.828;2023-05-07T13:55:24;71.63;;;10.18;;
40635;SDS011;26642;55.766;37.828;2023-05-07T13:57:56;61.28;;;9.18;;
40635;SDS011;26642;55.766;37.828;2023-05-07T14:00:24;51.38;;;7.00;;
40635;SDS011;26642;55.766;37.828;2023-05-07T14:02:51;28.83;;;4.90;;
40635;SDS011;26642;55.766;37.828;2023-05-07T14:05:18;18.88;;;3.72;;
40635;SDS011;26642;55.766;37.828;2023-05-07T14:07:45;15.38;;;2.20;;
40635;SDS011;26642;55.766;37.828;2023-05-07T14:10:12;19.48;;;2.67;;
40635;SDS011;26642;55.766;37.828;2023-05-07T14:12:38;17.20;;;2.50;;
40635;SDS011;26642;55.766;37.828;2023-05-07T14:15:04;16.90;;;3.03;;
40635;SDS011;26642;55.766;37.828;2023-05-07T14:17:30;65.60;;;8.57;;
40635;SDS011;26642;55.766;37.828;2023-05-07T14:19:57;45.25;;;7.50;;
40635;SDS011;26642;55.766;37.828;2023-05-07T14:22:23;29.00;;;5.45;;
40635;SDS011;26642;55.766;37.828;2023-05-07T14:24:49;27.33;;;4.38;;
40635;SDS011;26642;55.766;37.828;2023-05-07T14:27:16;17.13;;;2.80;;
40635;SDS011;26642;55.766;37.828;2023-05-07T14:29:42;6.97;;;2.15;;
40635;SDS011;26642;55.766;37.828;2023-05-07T14:32:08;9.30;;;1.67;;
40635;SDS011;26642;55.766;37.828;2023-05-07T14:34:34;4.28;;;1.65;;
40635;SDS011;26642;55.766;37.828;2023-05-07T14:37:00;3.17;;;1.10;;
40635;SDS011;26642;55.766;37.828;2023-05-07T14:39:26;3.80;;;1.40;;
40635;SDS011;26642;55.766;37.828;2023-05-07T14:41:52;15.68;;;1.83;;
40635;SDS011;26642;55.766;37.828;2023-05-07T14:44:20;12.55;;;1.90;;
40635;SDS011;26642;55.766;37.828;2023-05-07T14:46:46;8.13;;;1.52;;
40635;SDS011;26642;55.766;37.828;2023-05-07T14:49:13;13.20;;;1.65;;
40635;SDS011;26642;55.766;37.828;2023-05-07T14:51:42;5.28;;;1.52;;
40635;SDS011;26642;55.766;37.828;2023-05-07T14:54:12;3.92;;;1.48;;